sensor_id;sensor_type;location;lat;lon;timestamp;temperature;humidity
33271;DHT22;53180;51.344;6.152;2023-03-25T00:01:16;9.40;79.90
33271;DHT22;53180;51.344;6.152;2023-03-25T00:03:45;9.50;80.00
33271;DHT22;53180;51.344;6.152;2023-03-25T00:06:16;9.50;79.80
33271;DHT22;53180;51.344;6.152;2023-03-25T00:08:46;9.50;79.80
33271;DHT22;53180;51.344;6.152;2023-03-25T00:11:14;9.50;79.90
33271;DHT22;53180;51.344;6.152;2023-03-25T00:13:43;9.50;80.00
33271;DHT22;53180;51.344;6.152;2023-03-25T00:16:11;9.50;80.10
33271;DHT22;53180;51.344;6.152;2023-03-25T00:18:40;9.50;80.00
33271;DHT22;53180;51.344;6.152;2023-03-25T00:21:08;9.50;80.10
33271;DHT22;53180;51.344;6.152;2023-03-25T00:23:38;9.50;80.10
33271;DHT22;53180;51.344;6.152;2023-03-25T00:26:08;9.50;80.10
33271;DHT22;53180;51.344;6.152;2023-03-25T00:28:37;9.60;80.10
33271;DHT22;53180;51.344;6.152;2023-03-25T00:31:07;9.60;80.10
33271;DHT22;53180;51.344;6.152;2023-03-25T00:33:37;9.50;80.10
33271;DHT22;53180;51.344;6.152;2023-03-25T00:36:08;9.60;80.10
33271;DHT22;53180;51.344;6.152;2023-03-25T00:38:39;9.60;80.00
33271;DHT22;53180;51.344;6.152;2023-03-25T00:41:13;9.60;80.00
33271;DHT22;53180;51.344;6.152;2023-03-25T00:43:44;9.60;80.00
33271;DHT22;53180;51.344;6.152;2023-03-25T00:46:12;9.60;80.00
33271;DHT22;53180;51.344;6.152;2023-03-25T00:48:41;9.60;80.00
33271;DHT22;53180;51.344;6.152;2023-03-25T00:51:10;9.60;79.60
33271;DHT22;53180;51.344;6.152;2023-03-25T00:53:40;9.50;79.80
33271;DHT22;53180;51.344;6.152;2023-03-25T00:56:08;9.60;79.90
33271;DHT22;53180;51.344;6.152;2023-03-25T00:58:39;9.60;79.80
33271;DHT22;53180;51.344;6.152;2023-03-25T01:01:09;9.60;79.40
33271;DHT22;53180;51.344;6.152;2023-03-25T01:03:39;9.60;79.40
33271;DHT22;53180;51.344;6.152;2023-03-25T01:06:10;9.60;79.10
33271;DHT22;53180;51.344;6.152;2023-03-25T01:08:39;9.60;79.00
33271;DHT22;53180;51.344;6.152;2023-03-25T01:11:17;9.60;78.60
33271;DHT22;53180;51.344;6.152;2023-03-25T01:13:48;9.60;78.60
33271;DHT22;53180;51.344;6.152;2023-03-25T01:16:17;9.60;78.20
33271;DHT22;53180;51.344;6.152;2023-03-25T01:18:45;9.60;78.30
33271;DHT22;53180;51.344;6.152;2023-03-25T01:21:13;9.60;78.00
33271;DHT22;53180;51.344;6.152;2023-03-25T01:23:42;9.60;77.70
33271;DHT22;53180;51.344;6.152;2023-03-25T01:26:10;9.60;77.60
33271;DHT22;53180;51.344;6.152;2023-03-25T01:28:39;9.60;77.70
33271;DHT22;53180;51.344;6.152;2023-03-25T01:31:11;9.50;77.70
33271;DHT22;53180;51.344;6.152;2023-03-25T01:33:41;9.50;77.60
33271;DHT22;53180;51.344;6.152;2023-03-25T01:36:10;9.40;77.60
33271;DHT22;53180;51.344;6.152;2023-03-25T01:38:40;9.40;77.70
33271;DHT22;53180;51.344;6.152;2023-03-25T01:41:09;9.30;77.70
33271;DHT22;53180;51.344;6.152;2023-03-25T01:43:37;9.30;77.90
33271;DHT22;53180;51.344;6.152;2023-03-25T01:46:11;9.30;77.90
33271;DHT22;53180;51.344;6.152;2023-03-25T01:48:43;9.30;77.90
33271;DHT22;53180;51.344;6.152;2023-03-25T01:51:15;9.20;78.10
33271;DHT22;53180;51.344;6.152;2023-03-25T01:53:46;9.20;78.00
33271;DHT22;53180;51.344;6.152;2023-03-25T01:56:17;9.20;78.20
33271;DHT22;53180;51.344;6.152;2023-03-25T01:58:48;9.20;78.40
33271;DHT22;53180;51.344;6.152;2023-03-25T02:01:20;9.20;78.50
33271;DHT22;53180;51.344;6.152;2023-03-25T02:03:50;9.20;78.50
33271;DHT22;53180;51.344;6.152;2023-03-25T02:06:22;9.10;78.60
33271;DHT22;53180;51.344;6.152;2023-03-25T02:08:55;9.10;78.70
33271;DHT22;53180;51.344;6.152;2023-03-25T02:11:25;9.00;78.90
33271;DHT22;53180;51.344;6.152;2023-03-25T02:13:57;9.00;78.90
33271;DHT22;53180;51.344;6.152;2023-03-25T02:16:34;9.00;79.10
33271;DHT22;53180;51.344;6.152;2023-03-25T02:19:38;9.00;79.20
33271;DHT22;53180;51.344;6.152;2023-03-25T02:25:55;8.90;79.40
33271;DHT22;53180;51.344;6.152;2023-03-25T02:28:40;8.80;79.40
33271;DHT22;53180;51.344;6.152;2023-03-25T02:31:44;8.90;79.60
33271;DHT22;53180;51.344;6.152;2023-03-25T02:34:42;8.90;79.50
33271;DHT22;53180;51.344;6.152;2023-03-25T02:40:46;8.90;79.80
33271;DHT22;53180;51.344;6.152;2023-03-25T02:43:21;8.90;79.90
33271;DHT22;53180;51.344;6.152;2023-03-25T02:45:53;8.90;80.00
33271;DHT22;53180;51.344;6.152;2023-03-25T02:48:28;8.90;80.50
33271;DHT22;53180;51.344;6.152;2023-03-25T02:51:03;8.90;80.80
33271;DHT22;53180;51.344;6.152;2023-03-25T02:53:36;8.90;80.90
33271;DHT22;53180;51.344;6.152;2023-03-25T02:56:08;8.90;80.90
33271;DHT22;53180;51.344;6.152;2023-03-25T02:58:40;8.90;80.90
33271;DHT22;53180;51.344;6.152;2023-03-25T03:01:09;8.90;81.00
33271;DHT22;53180;51.344;6.152;2023-03-25T03:03:40;8.90;81.10
33271;DHT22;53180;51.344;6.152;2023-03-25T03:06:15;8.90;81.20
33271;DHT22;53180;51.344;6.152;2023-03-25T03:08:57;8.90;81.50
33271;DHT22;53180;51.344;6.152;2023-03-25T03:11:36;8.80;81.60
33271;DHT22;53180;51.344;6.152;2023-03-25T03:14:19;8.80;82.00
33271;DHT22;53180;51.344;6.152;2023-03-25T03:17:01;8.80;82.00
33271;DHT22;53180;51.344;6.152;2023-03-25T03:19:38;8.80;82.10
33271;DHT22;53180;51.344;6.152;2023-03-25T03:22:22;8.80;82.40
33271;DHT22;53180;51.344;6.152;2023-03-25T03:25:11;8.80;82.20
33271;DHT22;53180;51.344;6.152;2023-03-25T03:27:48;8.80;82.20
33271;DHT22;53180;51.344;6.152;2023-03-25T03:30:23;8.80;81.90
33271;DHT22;53180;51.344;6.152;2023-03-25T03:33:01;8.80;81.90
33271;DHT22;53180;51.344;6.152;2023-03-25T03:35:38;8.80;81.50
33271;DHT22;53180;51.344;6.152;2023-03-25T03:38:17;8.80;81.40
33271;DHT22;53180;51.344;6.152;2023-03-25T03:40:50;8.80;81.20
33271;DHT22;53180;51.344;6.152;2023-03-25T03:43:25;8.90;81.10
33271;DHT22;53180;51.344;6.152;2023-03-25T03:45:58;8.90;81.30
33271;DHT22;53180;51.344;6.152;2023-03-25T03:48:31;8.90;81.60
33271;DHT22;53180;51.344;6.152;2023-03-25T03:51:07;8.90;81.40
33271;DHT22;53180;51.344;6.152;2023-03-25T03:53:41;8.80;81.30
33271;DHT22;53180;51.344;6.152;2023-03-25T03:56:16;8.90;81.40
33271;DHT22;53180;51.344;6.152;2023-03-25T03:58:50;8.80;81.50
33271;DHT22;53180;51.344;6.152;2023-03-25T04:01:29;8.80;81.60
33271;DHT22;53180;51.344;6.152;2023-03-25T04:04:02;8.80;81.60
33271;DHT22;53180;51.344;6.152;2023-03-25T04:06:37;8.80;81.40
33271;DHT22;53180;51.344;6.152;2023-03-25T04:09:13;8.90;81.50
33271;DHT22;53180;51.344;6.152;2023-03-25T04:11:51;8.90;81.10
33271;DHT22;53180;51.344;6.152;2023-03-25T04:14:21;8.90;81.00
33271;DHT22;53180;51.344;6.152;2023-03-25T04:16:50;8.90;81.00
33271;DHT22;53180;51.344;6.152;2023-03-25T04:19:19;8.90;80.60
33271;DHT22;53180;51.344;6.152;2023-03-25T04:21:47;8.90;80.50
33271;DHT22;53180;51.344;6.152;2023-03-25T04:24:16;8.90;80.20
33271;DHT22;53180;51.344;6.152;2023-03-25T04:26:46;8.90;80.00
33271;DHT22;53180;51.344;6.152;2023-03-25T04:29:15;9.00;79.90
33271;DHT22;53180;51.344;6.152;2023-03-25T04:31:44;9.00;79.70
33271;DHT22;53180;51.344;6.152;2023-03-25T04:34:15;9.00;79.80
33271;DHT22;53180;51.344;6.152;2023-03-25T04:36:46;9.00;79.40
33271;DHT22;53180;51.344;6.152;2023-03-25T04:39:16;9.00;79.00
33271;DHT22;53180;51.344;6.152;2023-03-25T04:41:50;9.00;79.20
33271;DHT22;53180;51.344;6.152;2023-03-25T04:44:20;9.00;79.20
33271;DHT22;53180;51.344;6.152;2023-03-25T04:46:49;9.00;79.10
33271;DHT22;53180;51.344;6.152;2023-03-25T04:49:19;9.00;79.00
33271;DHT22;53180;51.344;6.152;2023-03-25T04:51:49;8.90;79.60
33271;DHT22;53180;51.344;6.152;2023-03-25T04:54:18;8.90;80.10
33271;DHT22;53180;51.344;6.152;2023-03-25T04:56:51;8.90;80.20
33271;DHT22;53180;51.344;6.152;2023-03-25T04:59:20;8.90;80.10
33271;DHT22;53180;51.344;6.152;2023-03-25T05:01:49;8.80;80.10
33271;DHT22;53180;51.344;6.152;2023-03-25T05:04:18;8.80;80.40
33271;DHT22;53180;51.344;6.152;2023-03-25T05:06:48;8.80;80.40
33271;DHT22;53180;51.344;6.152;2023-03-25T05:09:18;8.80;80.30
33271;DHT22;53180;51.344;6.152;2023-03-25T05:11:50;8.80;80.30
33271;DHT22;53180;51.344;6.152;2023-03-25T05:14:20;8.80;80.60
33271;DHT22;53180;51.344;6.152;2023-03-25T05:16:49;8.80;80.40
33271;DHT22;53180;51.344;6.152;2023-03-25T05:19:17;8.80;80.50
33271;DHT22;53180;51.344;6.152;2023-03-25T05:21:46;8.90;80.60
33271;DHT22;53180;51.344;6.152;2023-03-25T05:24:15;8.80;80.30
33271;DHT22;53180;51.344;6.152;2023-03-25T05:26:43;8.80;80.30
33271;DHT22;53180;51.344;6.152;2023-03-25T05:29:14;8.80;80.10
33271;DHT22;53180;51.344;6.152;2023-03-25T05:31:42;8.90;80.10
33271;DHT22;53180;51.344;6.152;2023-03-25T05:34:12;8.90;80.10
33271;DHT22;53180;51.344;6.152;2023-03-25T05:36:43;8.90;80.00
33271;DHT22;53180;51.344;6.152;2023-03-25T05:39:11;8.90;80.10
33271;DHT22;53180;51.344;6.152;2023-03-25T05:41:40;8.90;79.90
33271;DHT22;53180;51.344;6.152;2023-03-25T05:44:12;9.00;80.00
33271;DHT22;53180;51.344;6.152;2023-03-25T05:46:44;9.00;79.90
33271;DHT22;53180;51.344;6.152;2023-03-25T05:49:13;9.00;80.00
33271;DHT22;53180;51.344;6.152;2023-03-25T05:51:41;9.00;80.10
33271;DHT22;53180;51.344;6.152;2023-03-25T05:54:10;9.00;80.20
33271;DHT22;53180;51.344;6.152;2023-03-25T05:56:39;8.90;80.30
33271;DHT22;53180;51.344;6.152;2023-03-25T05:59:08;8.90;80.70
33271;DHT22;53180;51.344;6.152;2023-03-25T06:01:38;9.00;80.80
33271;DHT22;53180;51.344;6.152;2023-03-25T06:04:08;8.90;80.80
33271;DHT22;53180;51.344;6.152;2023-03-25T06:06:39;8.90;80.80
33271;DHT22;53180;51.344;6.152;2023-03-25T06:09:07;8.90;80.50
33271;DHT22;53180;51.344;6.152;2023-03-25T06:11:35;8.90;80.60
33271;DHT22;53180;51.344;6.152;2023-03-25T06:14:05;8.90;80.80
33271;DHT22;53180;51.344;6.152;2023-03-25T06:16:34;9.00;80.30
33271;DHT22;53180;51.344;6.152;2023-03-25T06:19:04;9.00;80.30
33271;DHT22;53180;51.344;6.152;2023-03-25T06:21:35;9.00;80.30
33271;DHT22;53180;51.344;6.152;2023-03-25T06:24:03;9.00;80.40
33271;DHT22;53180;51.344;6.152;2023-03-25T06:26:32;9.00;80.70
33271;DHT22;53180;51.344;6.152;2023-03-25T06:29:00;9.10;80.70
33271;DHT22;53180;51.344;6.152;2023-03-25T06:31:29;9.10;80.70
33271;DHT22;53180;51.344;6.152;2023-03-25T06:34:00;9.10;80.90
33271;DHT22;53180;51.344;6.152;2023-03-25T06:36:30;9.10;80.90
33271;DHT22;53180;51.344;6.152;2023-03-25T06:39:00;9.10;81.00
33271;DHT22;53180;51.344;6.152;2023-03-25T06:41:28;9.10;81.00
33271;DHT22;53180;51.344;6.152;2023-03-25T06:43:57;9.10;81.20
33271;DHT22;53180;51.344;6.152;2023-03-25T06:46:25;9.10;81.20
33271;DHT22;53180;51.344;6.152;2023-03-25T06:48:53;9.20;80.90
33271;DHT22;53180;51.344;6.152;2023-03-25T06:51:22;9.10;80.50
33271;DHT22;53180;51.344;6.152;2023-03-25T06:53:51;9.20;80.50
33271;DHT22;53180;51.344;6.152;2023-03-25T06:56:20;9.10;80.10
33271;DHT22;53180;51.344;6.152;2023-03-25T06:58:48;9.20;79.90
33271;DHT22;53180;51.344;6.152;2023-03-25T07:01:16;9.20;79.30
33271;DHT22;53180;51.344;6.152;2023-03-25T07:03:44;9.20;79.40
33271;DHT22;53180;51.344;6.152;2023-03-25T07:06:16;9.20;79.20
33271;DHT22;53180;51.344;6.152;2023-03-25T07:08:45;9.20;79.10
33271;DHT22;53180;51.344;6.152;2023-03-25T07:11:17;9.20;79.00
33271;DHT22;53180;51.344;6.152;2023-03-25T07:13:48;9.20;78.60
33271;DHT22;53180;51.344;6.152;2023-03-25T07:16:20;9.10;78.00
33271;DHT22;53180;51.344;6.152;2023-03-25T07:18:49;9.20;77.80
33271;DHT22;53180;51.344;6.152;2023-03-25T07:21:18;9.20;77.60
33271;DHT22;53180;51.344;6.152;2023-03-25T07:23:46;9.20;76.60
33271;DHT22;53180;51.344;6.152;2023-03-25T07:26:16;9.20;76.50
33271;DHT22;53180;51.344;6.152;2023-03-25T07:28:44;9.30;76.30
33271;DHT22;53180;51.344;6.152;2023-03-25T07:31:14;9.30;76.00
33271;DHT22;53180;51.344;6.152;2023-03-25T07:33:43;9.30;75.80
33271;DHT22;53180;51.344;6.152;2023-03-25T07:36:12;9.30;76.00
33271;DHT22;53180;51.344;6.152;2023-03-25T07:38:41;9.30;75.90
33271;DHT22;53180;51.344;6.152;2023-03-25T07:41:11;9.40;75.90
33271;DHT22;53180;51.344;6.152;2023-03-25T07:43:41;9.50;76.30
33271;DHT22;53180;51.344;6.152;2023-03-25T07:46:11;9.70;75.50
33271;DHT22;53180;51.344;6.152;2023-03-25T07:48:40;9.90;74.80
33271;DHT22;53180;51.344;6.152;2023-03-25T07:51:08;9.90;75.20
33271;DHT22;53180;51.344;6.152;2023-03-25T07:53:36;10.30;74.00
33271;DHT22;53180;51.344;6.152;2023-03-25T07:56:08;10.40;73.10
33271;DHT22;53180;51.344;6.152;2023-03-25T07:58:37;10.40;72.90
33271;DHT22;53180;51.344;6.152;2023-03-25T08:01:07;10.30;72.90
33271;DHT22;53180;51.344;6.152;2023-03-25T08:03:35;10.30;73.20
33271;DHT22;53180;51.344;6.152;2023-03-25T08:06:06;10.20;73.10
33271;DHT22;53180;51.344;6.152;2023-03-25T08:08:35;10.20;73.50
33271;DHT22;53180;51.344;6.152;2023-03-25T08:11:03;10.20;74.00
33271;DHT22;53180;51.344;6.152;2023-03-25T08:13:32;10.20;73.70
33271;DHT22;53180;51.344;6.152;2023-03-25T08:16:01;10.10;74.30
33271;DHT22;53180;51.344;6.152;2023-03-25T08:18:30;10.10;74.40
33271;DHT22;53180;51.344;6.152;2023-03-25T08:20:58;10.10;74.50
33271;DHT22;53180;51.344;6.152;2023-03-25T08:23:27;10.30;73.90
33271;DHT22;53180;51.344;6.152;2023-03-25T08:25:55;10.40;73.80
33271;DHT22;53180;51.344;6.152;2023-03-25T08:28:23;10.50;73.90
33271;DHT22;53180;51.344;6.152;2023-03-25T08:30:53;10.50;72.90
33271;DHT22;53180;51.344;6.152;2023-03-25T08:33:22;10.40;73.30
33271;DHT22;53180;51.344;6.152;2023-03-25T08:35:55;10.40;73.40
33271;DHT22;53180;51.344;6.152;2023-03-25T08:38:24;10.40;73.40
33271;DHT22;53180;51.344;6.152;2023-03-25T08:41:00;10.40;73.70
33271;DHT22;53180;51.344;6.152;2023-03-25T08:43:29;10.30;73.50
33271;DHT22;53180;51.344;6.152;2023-03-25T08:45:57;10.30;73.60
33271;DHT22;53180;51.344;6.152;2023-03-25T08:48:25;10.30;73.70
33271;DHT22;53180;51.344;6.152;2023-03-25T08:50:55;10.20;74.20
33271;DHT22;53180;51.344;6.152;2023-03-25T08:53:23;10.20;74.60
33271;DHT22;53180;51.344;6.152;2023-03-25T08:55:52;10.20;74.00
33271;DHT22;53180;51.344;6.152;2023-03-25T08:58:21;10.20;74.50
33271;DHT22;53180;51.344;6.152;2023-03-25T09:00:51;10.20;74.50
33271;DHT22;53180;51.344;6.152;2023-03-25T09:03:22;10.30;73.50
33271;DHT22;53180;51.344;6.152;2023-03-25T09:05:50;10.40;73.20
33271;DHT22;53180;51.344;6.152;2023-03-25T09:08:21;10.50;72.60
33271;DHT22;53180;51.344;6.152;2023-03-25T09:10:49;10.50;73.20
33271;DHT22;53180;51.344;6.152;2023-03-25T09:13:17;10.60;72.70
33271;DHT22;53180;51.344;6.152;2023-03-25T09:15:46;10.60;73.00
33271;DHT22;53180;51.344;6.152;2023-03-25T09:18:14;10.70;72.80
33271;DHT22;53180;51.344;6.152;2023-03-25T09:20:42;10.70;72.50
33271;DHT22;53180;51.344;6.152;2023-03-25T09:23:13;10.70;71.70
33271;DHT22;53180;51.344;6.152;2023-03-25T09:25:43;10.80;71.70
33271;DHT22;53180;51.344;6.152;2023-03-25T09:28:12;10.70;72.20
33271;DHT22;53180;51.344;6.152;2023-03-25T09:30:40;10.80;73.90
33271;DHT22;53180;51.344;6.152;2023-03-25T09:33:08;10.80;74.00
33271;DHT22;53180;51.344;6.152;2023-03-25T09:35:39;10.80;73.40
33271;DHT22;53180;51.344;6.152;2023-03-25T09:38:07;10.90;73.40
33271;DHT22;53180;51.344;6.152;2023-03-25T09:40:35;10.90;73.60
33271;DHT22;53180;51.344;6.152;2023-03-25T09:43:28;11.00;73.80
33271;DHT22;53180;51.344;6.152;2023-03-25T09:46:02;11.10;73.30
33271;DHT22;53180;51.344;6.152;2023-03-25T09:48:35;11.20;72.50
33271;DHT22;53180;51.344;6.152;2023-03-25T09:51:05;11.30;72.70
33271;DHT22;53180;51.344;6.152;2023-03-25T09:53:42;11.30;72.10
33271;DHT22;53180;51.344;6.152;2023-03-25T09:56:17;11.30;71.10
33271;DHT22;53180;51.344;6.152;2023-03-25T09:58:50;11.20;71.90
33271;DHT22;53180;51.344;6.152;2023-03-25T10:01:29;11.20;72.30
33271;DHT22;53180;51.344;6.152;2023-03-25T10:04:26;11.20;71.40
33271;DHT22;53180;51.344;6.152;2023-03-25T10:07:28;11.20;72.20
33271;DHT22;53180;51.344;6.152;2023-03-25T10:10:11;11.20;72.00
33271;DHT22;53180;51.344;6.152;2023-03-25T10:12:48;11.20;72.40
33271;DHT22;53180;51.344;6.152;2023-03-25T10:15:28;11.30;72.70
33271;DHT22;53180;51.344;6.152;2023-03-25T10:18:08;11.20;71.30
33271;DHT22;53180;51.344;6.152;2023-03-25T10:20:49;11.20;70.80
33271;DHT22;53180;51.344;6.152;2023-03-25T10:23:27;11.30;72.60
33271;DHT22;53180;51.344;6.152;2023-03-25T10:26:03;11.70;72.50
33271;DHT22;53180;51.344;6.152;2023-03-25T10:28:37;12.00;71.10
33271;DHT22;53180;51.344;6.152;2023-03-25T10:31:15;12.10;71.10
33271;DHT22;53180;51.344;6.152;2023-03-25T10:33:48;11.80;71.70
33271;DHT22;53180;51.344;6.152;2023-03-25T10:36:28;11.60;74.00
33271;DHT22;53180;51.344;6.152;2023-03-25T10:39:00;11.30;75.80
33271;DHT22;53180;51.344;6.152;2023-03-25T10:41:33;11.20;77.50
33271;DHT22;53180;51.344;6.152;2023-03-25T10:44:07;11.10;78.70
33271;DHT22;53180;51.344;6.152;2023-03-25T10:46:40;11.10;79.60
33271;DHT22;53180;51.344;6.152;2023-03-25T10:49:15;11.40;80.80
33271;DHT22;53180;51.344;6.152;2023-03-25T10:51:46;11.50;79.60
33271;DHT22;53180;51.344;6.152;2023-03-25T10:54:16;11.60;78.60
33271;DHT22;53180;51.344;6.152;2023-03-25T10:56:48;11.60;78.80
33271;DHT22;53180;51.344;6.152;2023-03-25T10:59:22;11.60;78.20
33271;DHT22;53180;51.344;6.152;2023-03-25T11:01:56;12.00;77.50
33271;DHT22;53180;51.344;6.152;2023-03-25T11:04:30;12.40;77.00
33271;DHT22;53180;51.344;6.152;2023-03-25T11:07:01;12.90;75.60
33271;DHT22;53180;51.344;6.152;2023-03-25T11:09:31;13.10;73.80
33271;DHT22;53180;51.344;6.152;2023-03-25T11:12:05;13.40;72.70
33271;DHT22;53180;51.344;6.152;2023-03-25T11:14:37;13.60;70.60
33271;DHT22;53180;51.344;6.152;2023-03-25T11:17:12;13.80;69.00
33271;DHT22;53180;51.344;6.152;2023-03-25T11:19:48;13.90;69.80
33271;DHT22;53180;51.344;6.152;2023-03-25T11:22:23;14.00;69.40
33271;DHT22;53180;51.344;6.152;2023-03-25T11:24:59;13.90;68.20
33271;DHT22;53180;51.344;6.152;2023-03-25T11:27:29;14.10;67.70
33271;DHT22;53180;51.344;6.152;2023-03-25T11:30:01;14.20;68.30
33271;DHT22;53180;51.344;6.152;2023-03-25T11:32:33;14.00;67.40
33271;DHT22;53180;51.344;6.152;2023-03-25T11:35:08;13.70;66.90
33271;DHT22;53180;51.344;6.152;2023-03-25T11:37:44;13.40;67.10
33271;DHT22;53180;51.344;6.152;2023-03-25T11:40:16;13.10;67.00
33271;DHT22;53180;51.344;6.152;2023-03-25T11:42:51;13.30;68.20
33271;DHT22;53180;51.344;6.152;2023-03-25T11:45:22;13.40;67.20
33271;DHT22;53180;51.344;6.152;2023-03-25T11:47:57;13.50;67.40
33271;DHT22;53180;51.344;6.152;2023-03-25T11:50:28;13.60;67.60
33271;DHT22;53180;51.344;6.152;2023-03-25T11:52:58;13.30;67.90
33271;DHT22;53180;51.344;6.152;2023-03-25T11:55:30;13.00;68.90
33271;DHT22;53180;51.344;6.152;2023-03-25T11:58:00;12.70;69.80
33271;DHT22;53180;51.344;6.152;2023-03-25T12:00:35;12.60;72.40
33271;DHT22;53180;51.344;6.152;2023-03-25T12:03:16;12.70;72.60
33271;DHT22;53180;51.344;6.152;2023-03-25T12:05:57;12.90;73.20
33271;DHT22;53180;51.344;6.152;2023-03-25T12:08:29;13.30;71.90
33271;DHT22;53180;51.344;6.152;2023-03-25T12:11:02;13.60;70.90
33271;DHT22;53180;51.344;6.152;2023-03-25T12:13:42;13.80;69.30
33271;DHT22;53180;51.344;6.152;2023-03-25T12:16:24;13.90;68.10
33271;DHT22;53180;51.344;6.152;2023-03-25T12:19:10;13.90;68.40
33271;DHT22;53180;51.344;6.152;2023-03-25T12:21:54;13.80;67.30
33271;DHT22;53180;51.344;6.152;2023-03-25T12:24:40;13.50;67.90
33271;DHT22;53180;51.344;6.152;2023-03-25T12:27:27;13.20;70.80
33271;DHT22;53180;51.344;6.152;2023-03-25T12:30:11;12.80;71.80
33271;DHT22;53180;51.344;6.152;2023-03-25T12:32:54;12.50;74.00
33271;DHT22;53180;51.344;6.152;2023-03-25T12:35:35;12.10;75.90
33271;DHT22;53180;51.344;6.152;2023-03-25T12:38:21;12.10;78.70
33271;DHT22;53180;51.344;6.152;2023-03-25T12:41:15;12.00;76.90
33271;DHT22;53180;51.344;6.152;2023-03-25T12:43:56;11.80;77.90
33271;DHT22;53180;51.344;6.152;2023-03-25T12:46:39;11.80;78.30
33271;DHT22;53180;51.344;6.152;2023-03-25T12:49:30;11.90;79.00
33271;DHT22;53180;51.344;6.152;2023-03-25T12:52:11;11.90;77.70
33271;DHT22;53180;51.344;6.152;2023-03-25T12:54:54;11.90;77.10
33271;DHT22;53180;51.344;6.152;2023-03-25T12:57:39;11.90;77.20
33271;DHT22;53180;51.344;6.152;2023-03-25T13:00:33;12.00;76.70
33271;DHT22;53180;51.344;6.152;2023-03-25T13:06:18;11.70;76.00
33271;DHT22;53180;51.344;6.152;2023-03-25T13:08:55;11.50;76.80
33271;DHT22;53180;51.344;6.152;2023-03-25T13:11:30;11.40;76.80
33271;DHT22;53180;51.344;6.152;2023-03-25T13:14:06;11.50;77.30
33271;DHT22;53180;51.344;6.152;2023-03-25T13:16:39;11.30;77.20
33271;DHT22;53180;51.344;6.152;2023-03-25T13:19:10;11.40;77.60
33271;DHT22;53180;51.344;6.152;2023-03-25T13:21:43;11.30;77.20
33271;DHT22;53180;51.344;6.152;2023-03-25T13:24:19;11.20;77.50
33271;DHT22;53180;51.344;6.152;2023-03-25T13:26:50;11.20;77.10
33271;DHT22;53180;51.344;6.152;2023-03-25T13:29:24;11.10;77.20
33271;DHT22;53180;51.344;6.152;2023-03-25T13:31:59;11.10;76.70
33271;DHT22;53180;51.344;6.152;2023-03-25T13:34:33;11.10;78.00
33271;DHT22;53180;51.344;6.152;2023-03-25T13:37:09;11.00;78.30
33271;DHT22;53180;51.344;6.152;2023-03-25T13:40:02;10.90;78.90
33271;DHT22;53180;51.344;6.152;2023-03-25T13:42:42;10.90;79.10
33271;DHT22;53180;51.344;6.152;2023-03-25T13:45:16;10.80;79.70
33271;DHT22;53180;51.344;6.152;2023-03-25T13:47:49;10.70;81.80
33271;DHT22;53180;51.344;6.152;2023-03-25T13:50:25;10.40;83.20
33271;DHT22;53180;51.344;6.152;2023-03-25T13:52:59;10.20;83.90
33271;DHT22;53180;51.344;6.152;2023-03-25T13:55:34;10.10;82.40
33271;DHT22;53180;51.344;6.152;2023-03-25T13:58:20;10.00;82.90
33271;DHT22;53180;51.344;6.152;2023-03-25T14:01:23;9.80;82.80
33271;DHT22;53180;51.344;6.152;2023-03-25T14:04:23;9.20;83.40
33271;DHT22;53180;51.344;6.152;2023-03-25T14:07:46;9.10;83.10
33271;DHT22;53180;51.344;6.152;2023-03-25T14:10:34;9.10;84.40
33271;DHT22;53180;51.344;6.152;2023-03-25T14:13:09;9.00;85.20
33271;DHT22;53180;51.344;6.152;2023-03-25T14:15:40;9.10;86.50
33271;DHT22;53180;51.344;6.152;2023-03-25T14:18:15;9.00;86.80
33271;DHT22;53180;51.344;6.152;2023-03-25T14:20:45;9.00;87.30
33271;DHT22;53180;51.344;6.152;2023-03-25T14:23:16;9.10;87.50
33271;DHT22;53180;51.344;6.152;2023-03-25T14:25:51;9.10;87.90
33271;DHT22;53180;51.344;6.152;2023-03-25T14:28:32;9.10;88.30
33271;DHT22;53180;51.344;6.152;2023-03-25T14:31:27;9.20;88.20
33271;DHT22;53180;51.344;6.152;2023-03-25T14:34:27;9.30;88.10
33271;DHT22;53180;51.344;6.152;2023-03-25T14:40:27;9.40;88.10
33271;DHT22;53180;51.344;6.152;2023-03-25T14:43:35;9.40;87.60
33271;DHT22;53180;51.344;6.152;2023-03-25T14:46:12;9.60;87.70
33271;DHT22;53180;51.344;6.152;2023-03-25T14:48:47;9.70;86.60
33271;DHT22;53180;51.344;6.152;2023-03-25T14:51:52;9.80;86.90
33271;DHT22;53180;51.344;6.152;2023-03-25T14:54:29;9.90;86.50
33271;DHT22;53180;51.344;6.152;2023-03-25T14:57:03;10.20;86.80
33271;DHT22;53180;51.344;6.152;2023-03-25T14:59:38;10.40;86.60
33271;DHT22;53180;51.344;6.152;2023-03-25T15:02:13;10.50;86.80
33271;DHT22;53180;51.344;6.152;2023-03-25T15:04:44;10.60;85.60
33271;DHT22;53180;51.344;6.152;2023-03-25T15:07:38;10.70;85.00
33271;DHT22;53180;51.344;6.152;2023-03-25T15:10:21;10.60;84.80
33271;DHT22;53180;51.344;6.152;2023-03-25T15:12:55;10.50;84.70
33271;DHT22;53180;51.344;6.152;2023-03-25T15:15:32;10.50;84.80
33271;DHT22;53180;51.344;6.152;2023-03-25T15:18:01;10.50;85.00
33271;DHT22;53180;51.344;6.152;2023-03-25T15:20:31;10.60;84.30
33271;DHT22;53180;51.344;6.152;2023-03-25T15:23:35;10.80;84.30
33271;DHT22;53180;51.344;6.152;2023-03-25T15:26:12;11.00;84.30
33271;DHT22;53180;51.344;6.152;2023-03-25T15:29:06;11.00;82.40
33271;DHT22;53180;51.344;6.152;2023-03-25T15:31:53;11.20;82.80
33271;DHT22;53180;51.344;6.152;2023-03-25T15:34:44;11.30;82.20
33271;DHT22;53180;51.344;6.152;2023-03-25T15:37:46;11.20;82.30
33271;DHT22;53180;51.344;6.152;2023-03-25T15:40:52;11.30;82.00
33271;DHT22;53180;51.344;6.152;2023-03-25T15:50:39;11.40;81.90
33271;DHT22;53180;51.344;6.152;2023-03-25T15:53:48;11.30;81.10
33271;DHT22;53180;51.344;6.152;2023-03-25T15:56:36;11.40;81.20
33271;DHT22;53180;51.344;6.152;2023-03-25T15:59:22;11.50;80.50
33271;DHT22;53180;51.344;6.152;2023-03-25T16:01:59;11.50;81.40
33271;DHT22;53180;51.344;6.152;2023-03-25T16:04:37;11.50;80.50
33271;DHT22;53180;51.344;6.152;2023-03-25T16:07:07;11.50;80.50
33271;DHT22;53180;51.344;6.152;2023-03-25T16:09:42;11.50;80.90
33271;DHT22;53180;51.344;6.152;2023-03-25T16:12:18;11.40;80.80
33271;DHT22;53180;51.344;6.152;2023-03-25T16:14:49;11.40;79.80
33271;DHT22;53180;51.344;6.152;2023-03-25T16:17:20;11.40;80.00
33271;DHT22;53180;51.344;6.152;2023-03-25T16:19:53;11.40;79.40
33271;DHT22;53180;51.344;6.152;2023-03-25T16:22:25;11.30;79.60
33271;DHT22;53180;51.344;6.152;2023-03-25T16:24:56;11.30;80.00
33271;DHT22;53180;51.344;6.152;2023-03-25T16:27:32;11.30;80.20
33271;DHT22;53180;51.344;6.152;2023-03-25T16:30:16;11.30;80.40
33271;DHT22;53180;51.344;6.152;2023-03-25T16:32:47;11.20;80.20
33271;DHT22;53180;51.344;6.152;2023-03-25T16:35:23;11.20;79.40
33271;DHT22;53180;51.344;6.152;2023-03-25T16:37:54;11.10;79.50
33271;DHT22;53180;51.344;6.152;2023-03-25T16:40:26;11.00;78.90
33271;DHT22;53180;51.344;6.152;2023-03-25T16:43:02;11.00;78.50
33271;DHT22;53180;51.344;6.152;2023-03-25T16:45:32;11.10;79.10